createdAt,value
2018-05-16T00:00:56.915Z,10.00
2018-05-16T00:01:57.637Z,8.00
2018-05-16T00:02:58.350Z,10.00
2018-05-16T00:03:59.078Z,10.00
2018-05-16T00:04:59.795Z,10.00
2018-05-16T00:06:00.512Z,10.00
2018-05-16T00:07:01.240Z,8.00
2018-05-16T00:08:02.042Z,9.00
2018-05-16T00:09:02.683Z,11.00
2018-05-16T00:10:03.402Z,9.00
2018-05-16T00:11:04.115Z,8.00
2018-05-16T00:12:04.827Z,9.00
2018-05-16T00:13:05.541Z,8.00
2018-05-16T00:14:06.257Z,8.00
2018-05-16T00:15:06.972Z,9.00
2018-05-16T00:16:07.699Z,9.00
2018-05-16T00:17:08.414Z,8.00
2018-05-16T00:18:09.131Z,10.00
2018-05-16T00:19:09.846Z,9.00
2018-05-16T00:20:10.560Z,9.00
2018-05-16T00:21:11.274Z,9.00
2018-05-16T00:22:11.987Z,8.00
2018-05-16T00:23:12.702Z,10.00
2018-05-16T00:24:13.417Z,9.00
2018-05-16T00:25:14.130Z,9.00
2018-05-16T00:26:14.847Z,9.00
2018-05-16T00:27:15.561Z,8.00
2018-05-16T00:28:16.276Z,10.00
2018-05-16T00:29:16.989Z,8.00
2018-05-16T00:30:17.704Z,10.00
2018-05-16T00:31:18.418Z,9.00
2018-05-16T00:32:19.132Z,10.00
2018-05-16T00:33:19.845Z,9.00
2018-05-16T00:34:20.558Z,8.00
2018-05-16T00:35:21.273Z,9.00
2018-05-16T00:36:22.001Z,10.00
2018-05-16T00:37:22.726Z,9.00
2018-05-16T00:38:23.430Z,10.00
2018-05-16T00:39:24.159Z,11.00
2018-05-16T00:40:24.873Z,9.00
2018-05-16T00:41:25.589Z,9.00
2018-05-16T00:42:26.303Z,10.00
2018-05-16T00:43:27.019Z,10.00
2018-05-16T00:44:27.735Z,10.00
2018-05-16T00:45:28.455Z,9.00
2018-05-16T00:46:29.166Z,7.00
2018-05-16T00:47:29.881Z,10.00
2018-05-16T00:48:30.600Z,10.00
2018-05-16T00:49:31.329Z,10.00
2018-05-16T00:50:32.043Z,9.00
2018-05-16T00:51:32.758Z,9.00
2018-05-16T00:52:33.474Z,8.00
2018-05-16T00:53:34.187Z,10.00
2018-05-16T00:54:34.902Z,9.00
2018-05-16T00:55:35.616Z,8.00
2018-05-16T00:56:36.330Z,8.00
2018-05-16T00:57:37.045Z,10.00
2018-05-16T00:58:37.761Z,9.00
2018-05-16T00:59:38.474Z,9.00
2018-05-16T01:00:39.189Z,8.00
2018-05-16T01:01:39.902Z,8.00
2018-05-16T01:02:40.616Z,10.00
2018-05-16T01:03:41.333Z,10.00
2018-05-16T01:04:42.056Z,9.00
2018-05-16T01:05:42.769Z,8.00
2018-05-16T01:06:43.501Z,9.00
2018-05-16T01:07:44.210Z,8.00
2018-05-16T01:08:44.922Z,9.00
2018-05-16T01:09:45.637Z,9.00
2018-05-16T01:10:46.348Z,8.00
2018-05-16T01:11:47.062Z,8.00
2018-05-16T01:12:47.776Z,9.00
2018-05-16T01:13:48.489Z,9.00
2018-05-16T01:14:49.203Z,9.00
2018-05-16T01:15:49.929Z,10.00
2018-05-16T01:16:50.644Z,9.00
2018-05-16T01:17:51.357Z,9.00
2018-05-16T01:18:52.071Z,9.00
2018-05-16T01:19:52.786Z,8.00
2018-05-16T01:20:53.495Z,9.00
2018-05-16T01:21:54.207Z,8.00
2018-05-16T01:22:54.921Z,10.00
2018-05-16T01:23:55.633Z,8.00
2018-05-16T01:24:56.347Z,8.00
2018-05-16T01:25:57.057Z,8.00
2018-05-16T01:26:57.771Z,7.00
2018-05-16T01:27:58.496Z,8.00
2018-05-16T01:28:59.211Z,10.00
2018-05-16T01:29:59.926Z,9.00
2018-05-16T01:31:00.638Z,9.00
2018-05-16T01:32:01.354Z,10.00
2018-05-16T01:33:02.071Z,11.00
2018-05-16T01:34:02.783Z,10.00
2018-05-16T01:35:03.495Z,9.00
2018-05-16T01:36:04.208Z,9.00
2018-05-16T01:37:04.923Z,10.00
2018-05-16T01:38:05.637Z,9.00
2018-05-16T01:39:06.351Z,7.00
2018-05-16T01:40:07.173Z,8.00
2018-05-16T01:41:07.776Z,9.00
2018-05-16T01:42:08.490Z,8.00
2018-05-16T01:43:09.205Z,8.00
2018-05-16T01:44:09.918Z,8.00
2018-05-16T01:45:10.636Z,8.00
2018-05-16T01:46:11.359Z,8.00
2018-05-16T01:47:12.074Z,8.00
2018-05-16T01:48:12.796Z,6.00
2018-05-16T01:49:13.514Z,9.00
2018-05-16T01:50:14.239Z,8.00
2018-05-16T01:51:14.966Z,10.00
2018-05-16T01:52:15.680Z,9.00
2018-05-16T01:53:16.392Z,9.00
2018-05-16T01:54:17.122Z,9.00
2018-05-16T01:55:17.848Z,10.00
2018-05-16T01:56:18.561Z,10.00
2018-05-16T01:57:19.279Z,8.00
2018-05-16T01:58:19.992Z,7.00
2018-05-16T01:59:20.705Z,8.00
2018-05-16T02:00:21.500Z,9.00
2018-05-16T02:01:22.134Z,7.00
2018-05-16T02:02:22.847Z,8.00
2018-05-16T02:03:23.565Z,8.00
2018-05-16T02:04:24.274Z,9.00
2018-05-16T02:05:24.986Z,8.00
2018-05-16T02:06:25.701Z,7.00
2018-05-16T02:07:26.424Z,8.00
2018-05-16T02:08:27.137Z,8.00
2018-05-16T02:09:27.851Z,9.00
2018-05-16T02:10:28.565Z,9.00
2018-05-16T02:11:29.277Z,8.00
2018-05-16T02:12:30.005Z,10.00
2018-05-16T02:13:30.720Z,9.00
2018-05-16T02:14:31.433Z,9.00
2018-05-16T02:15:32.163Z,8.00
2018-05-16T02:16:32.884Z,8.00
2018-05-16T02:17:33.596Z,7.00
2018-05-16T02:18:34.309Z,8.00
2018-05-16T02:19:35.023Z,9.00
2018-05-16T02:20:35.737Z,11.00
2018-05-16T02:21:36.449Z,10.00
2018-05-16T02:22:37.179Z,12.00
2018-05-16T02:23:37.895Z,9.00
2018-05-16T02:24:38.608Z,9.00
2018-05-16T02:25:39.333Z,8.00
2018-05-16T02:26:40.044Z,9.00
2018-05-16T02:27:40.755Z,8.00
2018-05-16T02:28:41.466Z,7.00
2018-05-16T02:29:42.178Z,8.00
2018-05-16T02:30:42.891Z,8.00
2018-05-16T02:31:43.604Z,8.00
2018-05-16T02:32:44.318Z,8.00
2018-05-16T02:33:45.033Z,11.00
2018-05-16T02:34:45.755Z,9.00
2018-05-16T02:35:46.476Z,7.00
2018-05-16T02:36:47.185Z,8.00
2018-05-16T02:37:47.900Z,10.00
2018-05-16T02:38:48.613Z,9.00
2018-05-16T02:39:49.341Z,10.00
2018-05-16T02:40:50.058Z,8.00
2018-05-16T02:41:50.768Z,12.00
2018-05-16T02:42:51.485Z,10.00
2018-05-16T02:43:52.195Z,10.00
2018-05-16T02:44:52.908Z,10.00
2018-05-16T02:45:53.623Z,9.00
2018-05-16T02:46:54.335Z,8.00
2018-05-16T02:47:55.047Z,10.00
2018-05-16T02:48:55.759Z,9.00
2018-05-16T02:49:56.474Z,9.00
2018-05-16T02:50:57.189Z,11.00
2018-05-16T02:51:57.915Z,9.00
2018-05-16T02:52:58.632Z,9.00
2018-05-16T02:53:59.352Z,9.00
2018-05-16T02:55:00.078Z,10.00
2018-05-16T02:56:00.793Z,10.00
2018-05-16T02:57:01.504Z,9.00
2018-05-16T02:58:02.215Z,9.00
2018-05-16T02:59:02.931Z,9.00
2018-05-16T03:00:03.657Z,10.00
2018-05-16T03:01:04.373Z,10.00
2018-05-16T03:02:05.085Z,9.00
2018-05-16T03:03:05.804Z,11.00
2018-05-16T03:04:06.518Z,10.00
2018-05-16T03:05:07.234Z,11.00
2018-05-16T03:06:07.962Z,16.00
2018-05-16T03:07:08.676Z,11.00
2018-05-16T03:08:09.391Z,11.00
2018-05-16T03:09:10.112Z,10.00
2018-05-16T03:10:10.821Z,10.00
2018-05-16T03:11:11.536Z,11.00
2018-05-16T03:12:12.262Z,10.00
2018-05-16T03:13:12.986Z,10.00
2018-05-16T03:14:13.707Z,10.00
2018-05-16T03:15:14.421Z,10.00
2018-05-16T03:16:15.137Z,12.00
2018-05-16T03:17:15.861Z,8.00
2018-05-16T03:18:16.588Z,12.00
2018-05-16T03:19:17.305Z,10.00
2018-05-16T03:20:18.021Z,8.00
2018-05-16T03:21:18.736Z,10.00
2018-05-16T03:22:19.462Z,10.00
2018-05-16T03:23:20.188Z,9.00
2018-05-16T03:24:20.902Z,10.00
2018-05-16T03:25:21.619Z,10.00
2018-05-16T03:26:22.333Z,10.00
2018-05-16T03:27:23.062Z,9.00
2018-05-16T03:28:23.776Z,11.00
2018-05-16T03:29:24.507Z,11.00
2018-05-16T03:30:25.219Z,9.00
2018-05-16T03:31:25.935Z,10.00
2018-05-16T03:32:26.649Z,11.00
2018-05-16T03:33:27.364Z,9.00
2018-05-16T03:34:28.079Z,10.00
2018-05-16T03:35:28.795Z,8.00
2018-05-16T03:36:29.527Z,10.00
2018-05-16T03:37:30.244Z,10.00
2018-05-16T03:38:30.959Z,10.00
2018-05-16T03:39:31.674Z,10.00
2018-05-16T03:40:32.391Z,10.00
2018-05-16T03:41:33.108Z,11.00
2018-05-16T03:42:33.827Z,10.00
2018-05-16T03:43:34.553Z,10.00
2018-05-16T03:44:35.272Z,11.00
2018-05-16T03:45:35.989Z,9.00
2018-05-16T03:46:36.721Z,10.00
2018-05-16T03:47:37.452Z,10.00
2018-05-16T03:48:38.183Z,11.00
2018-05-16T03:49:38.901Z,9.00
2018-05-16T03:50:39.619Z,11.00
2018-05-16T03:51:40.336Z,10.00
2018-05-16T03:52:41.051Z,9.00
2018-05-16T03:53:41.766Z,9.00
2018-05-16T03:54:42.483Z,9.00
2018-05-16T03:55:43.202Z,8.00
2018-05-16T03:56:43.919Z,9.00
2018-05-16T03:57:44.636Z,10.00
2018-05-16T03:58:45.353Z,11.00
2018-05-16T03:59:46.071Z,11.00
2018-05-16T04:00:46.791Z,10.00
2018-05-16T04:01:47.508Z,11.00
2018-05-16T04:02:48.225Z,9.00
2018-05-16T04:03:48.941Z,10.00
2018-05-16T04:04:49.657Z,12.00
2018-05-16T04:05:50.376Z,11.00
2018-05-16T04:06:51.094Z,10.00
2018-05-16T04:07:51.810Z,9.00
2018-05-16T04:08:52.527Z,9.00
2018-05-16T04:09:53.244Z,12.00
2018-05-16T04:10:53.961Z,12.00
2018-05-16T04:11:54.677Z,11.00
2018-05-16T04:12:55.397Z,10.00
2018-05-16T04:13:56.115Z,10.00
2018-05-16T04:14:56.831Z,9.00
2018-05-16T04:15:57.564Z,10.00
2018-05-16T04:16:58.295Z,9.00
2018-05-16T04:17:59.013Z,12.00
2018-05-16T04:18:59.732Z,11.00
2018-05-16T04:20:00.453Z,11.00
2018-05-16T04:21:01.171Z,11.00
2018-05-16T04:22:01.889Z,11.00
2018-05-16T04:23:02.620Z,13.00
2018-05-16T04:24:03.341Z,14.00
2018-05-16T04:25:04.060Z,14.00
2018-05-16T04:26:04.795Z,12.00
2018-05-16T04:27:05.508Z,10.00
2018-05-16T04:28:06.227Z,9.00
2018-05-16T04:29:06.961Z,10.00
2018-05-16T04:30:07.682Z,12.00
2018-05-16T04:31:08.400Z,11.00
2018-05-16T04:32:09.131Z,10.00
2018-05-16T04:33:09.849Z,10.00
2018-05-16T04:34:10.571Z,11.00
2018-05-16T04:35:11.289Z,12.00
2018-05-16T04:36:12.025Z,11.00
2018-05-16T04:37:12.740Z,10.00
2018-05-16T04:38:13.459Z,11.00
2018-05-16T04:39:14.178Z,12.00
2018-05-16T04:40:14.897Z,11.00
2018-05-16T04:41:15.626Z,9.00
2018-05-16T04:42:16.345Z,10.00
2018-05-16T04:43:17.063Z,10.00
2018-05-16T04:44:17.797Z,14.00
2018-05-16T04:45:18.519Z,11.00
2018-05-16T04:46:19.246Z,10.00
2018-05-16T04:47:19.968Z,9.00
2018-05-16T04:48:20.685Z,11.00
2018-05-16T04:49:21.405Z,11.00
2018-05-16T04:50:22.141Z,10.00
2018-05-16T04:51:22.858Z,9.00
2018-05-16T04:52:23.588Z,14.00
2018-05-16T04:53:24.308Z,12.00
2018-05-16T04:54:25.027Z,10.00
2018-05-16T04:55:25.758Z,11.00
2018-05-16T04:56:26.476Z,10.00
2018-05-16T04:57:27.198Z,10.00
2018-05-16T04:58:27.929Z,10.00
2018-05-16T04:59:28.651Z,12.00
2018-05-16T05:00:29.369Z,10.00
2018-05-16T05:01:30.088Z,10.00
2018-05-16T05:02:30.809Z,13.00
2018-05-16T05:03:31.528Z,10.00
2018-05-16T05:04:32.251Z,10.00
2018-05-16T05:05:32.979Z,11.00
2018-05-16T05:06:33.698Z,10.00
2018-05-16T05:07:34.418Z,10.00
2018-05-16T05:08:35.140Z,10.00
2018-05-16T05:09:35.871Z,10.00
2018-05-16T05:10:36.601Z,11.00
2018-05-16T05:11:37.331Z,12.00
2018-05-16T05:12:38.103Z,11.00
2018-05-16T05:13:38.784Z,11.00
2018-05-16T05:14:39.504Z,11.00
2018-05-16T05:15:40.225Z,12.00
2018-05-16T05:16:40.942Z,13.00
2018-05-16T05:17:41.661Z,12.00
2018-05-16T05:18:42.428Z,10.00
2018-05-16T05:19:43.101Z,11.00
2018-05-16T05:20:43.819Z,11.00
2018-05-16T05:21:44.540Z,11.00
2018-05-16T05:22:45.260Z,12.00
2018-05-16T05:23:45.996Z,11.00
2018-05-16T05:24:46.712Z,12.00
2018-05-16T05:25:47.432Z,11.00
2018-05-16T05:26:48.150Z,13.00
2018-05-16T05:27:48.871Z,12.00
2018-05-16T05:28:49.833Z,9.00
2018-05-16T05:29:50.326Z,11.00
2018-05-16T05:30:51.060Z,13.00
2018-05-16T05:31:51.786Z,12.00
2018-05-16T05:32:52.501Z,11.00
2018-05-16T05:33:53.222Z,12.00
2018-05-16T05:34:53.943Z,13.00
2018-05-16T05:35:54.681Z,13.00
2018-05-16T05:36:55.466Z,13.00
2018-05-16T05:37:56.138Z,12.00
2018-05-16T05:38:56.868Z,12.00
2018-05-16T05:39:57.588Z,21.00
2018-05-16T05:40:58.308Z,45.00
2018-05-16T05:41:59.042Z,11.00
2018-05-16T05:42:59.765Z,10.00
2018-05-16T05:44:00.487Z,12.00
2018-05-16T05:45:01.209Z,11.00
2018-05-16T05:46:01.930Z,13.00
2018-05-16T05:47:02.652Z,11.00
2018-05-16T05:48:03.372Z,11.00
2018-05-16T05:49:04.103Z,11.00
2018-05-16T05:50:04.827Z,11.00
2018-05-16T05:51:05.549Z,11.00
2018-05-16T05:52:06.273Z,12.00
2018-05-16T05:53:06.997Z,12.00
2018-05-16T05:54:07.716Z,9.00
2018-05-16T05:55:08.446Z,10.00
2018-05-16T05:56:09.167Z,11.00
2018-05-16T05:57:09.888Z,13.00
2018-05-16T05:58:10.612Z,11.00
2018-05-16T05:59:11.335Z,12.00
2018-05-16T06:00:12.097Z,10.00
2018-05-16T06:01:12.776Z,8.00
2018-05-16T06:02:13.498Z,10.00
2018-05-16T06:03:14.217Z,11.00
2018-05-16T06:04:14.953Z,9.00
2018-05-16T06:05:15.672Z,12.00
2018-05-16T06:06:16.394Z,12.00
2018-05-16T06:07:17.117Z,11.00
2018-05-16T06:08:17.838Z,11.00
2018-05-16T06:09:18.569Z,10.00
2018-05-16T06:10:19.283Z,11.00
2018-05-16T06:11:20.017Z,12.00
2018-05-16T06:12:20.739Z,10.00
2018-05-16T06:13:21.461Z,11.00
2018-05-16T06:14:22.184Z,12.00
2018-05-16T06:15:22.905Z,11.00
2018-05-16T06:16:23.625Z,10.00
2018-05-16T06:17:24.351Z,13.00
2018-05-16T06:18:25.074Z,12.00
2018-05-16T06:19:25.847Z,10.00
2018-05-16T06:20:26.526Z,10.00
2018-05-16T06:21:27.259Z,11.00
2018-05-16T06:22:27.998Z,14.00
2018-05-16T06:23:28.718Z,11.00
2018-05-16T06:24:29.441Z,10.00
2018-05-16T06:25:30.166Z,11.00
2018-05-16T06:26:30.902Z,12.00
2018-05-16T06:27:31.624Z,11.00
2018-05-16T06:28:32.360Z,12.00
2018-05-16T06:29:33.083Z,14.00
2018-05-16T06:30:33.808Z,14.00
2018-05-16T06:31:34.531Z,14.00
2018-05-16T06:32:35.331Z,12.00
2018-05-16T06:33:35.977Z,14.00
2018-05-16T06:34:36.702Z,13.00
2018-05-16T06:35:37.438Z,15.00
2018-05-16T06:36:38.172Z,12.00
2018-05-16T06:37:38.894Z,12.00
2018-05-16T06:38:39.619Z,14.00
2018-05-16T06:39:40.341Z,14.00
2018-05-16T06:40:41.062Z,12.00
2018-05-16T06:41:41.784Z,14.00
2018-05-16T06:42:42.505Z,13.00
2018-05-16T06:43:43.228Z,14.00
2018-05-16T06:44:43.951Z,15.00
2018-05-16T06:45:44.679Z,15.00
2018-05-16T06:46:45.396Z,13.00
2018-05-16T06:47:46.131Z,14.00
2018-05-16T06:48:46.866Z,14.00
2018-05-16T06:49:47.589Z,12.00
2018-05-16T06:50:48.322Z,15.00
2018-05-16T06:51:49.045Z,15.00
2018-05-16T06:52:49.768Z,13.00
2018-05-16T06:53:50.492Z,14.00
2018-05-16T06:54:51.227Z,13.00
2018-05-16T06:55:51.963Z,14.00
2018-05-16T06:56:52.684Z,15.00
2018-05-16T06:57:53.406Z,15.00
2018-05-16T06:58:54.128Z,15.00
2018-05-16T06:59:54.929Z,14.00
2018-05-16T07:00:55.579Z,15.00
2018-05-16T07:01:56.298Z,17.00
2018-05-16T07:02:57.025Z,14.00
2018-05-16T07:03:57.806Z,14.00
2018-05-16T07:04:58.483Z,15.00
2018-05-16T07:05:59.210Z,17.00
2018-05-16T07:06:59.929Z,16.00
2018-05-16T07:08:00.652Z,14.00
2018-05-16T07:09:01.372Z,16.00
2018-05-16T07:10:02.091Z,16.00
2018-05-16T07:11:02.813Z,15.00
2018-05-16T07:12:03.534Z,17.00
2018-05-16T07:13:04.259Z,17.00
2018-05-16T07:14:04.979Z,15.00
2018-05-16T07:15:05.707Z,15.00
2018-05-16T07:16:06.436Z,14.00
2018-05-16T07:17:07.170Z,15.00
2018-05-16T07:18:07.897Z,16.00
2018-05-16T07:19:08.619Z,18.00
2018-05-16T07:20:09.342Z,17.00
2018-05-16T07:21:10.063Z,15.00
2018-05-16T07:22:10.787Z,16.00
2018-05-16T07:23:11.506Z,14.00
2018-05-16T07:24:12.231Z,16.00
2018-05-16T07:25:12.955Z,15.00
2018-05-16T07:26:13.677Z,15.00
2018-05-16T07:27:14.412Z,17.00
2018-05-16T07:28:15.137Z,14.00
2018-05-16T07:29:15.861Z,17.00
2018-05-16T07:30:16.594Z,17.00
2018-05-16T07:31:17.317Z,15.00
2018-05-16T07:32:18.091Z,15.00
2018-05-16T07:33:18.764Z,18.00
2018-05-16T07:34:19.486Z,16.00
2018-05-16T07:35:20.209Z,18.00
2018-05-16T07:36:20.934Z,16.00
2018-05-16T07:37:21.667Z,16.00
2018-05-16T07:38:22.391Z,17.00
2018-05-16T07:39:23.114Z,15.00
2018-05-16T07:40:23.836Z,18.00
2018-05-16T07:41:24.574Z,16.00
2018-05-16T07:42:25.310Z,16.00
2018-05-16T07:43:26.034Z,17.00
2018-05-16T07:44:26.756Z,18.00
2018-05-16T07:45:27.481Z,18.00
2018-05-16T07:46:28.205Z,16.00
2018-05-16T07:47:28.941Z,17.00
2018-05-16T07:48:29.679Z,17.00
2018-05-16T07:49:30.412Z,17.00
2018-05-16T07:50:31.142Z,16.00
2018-05-16T07:51:31.873Z,18.00
2018-05-16T07:52:32.591Z,17.00
2018-05-16T07:53:33.313Z,17.00
2018-05-16T07:54:34.047Z,21.00
2018-05-16T07:55:34.756Z,17.00
2018-05-16T07:56:35.493Z,17.00
2018-05-16T07:57:36.216Z,18.00
2018-05-16T07:58:36.940Z,19.00
2018-05-16T07:59:37.661Z,19.00
2018-05-16T08:00:38.385Z,18.00
2018-05-16T08:01:39.118Z,18.00
2018-05-16T08:02:39.880Z,19.00
2018-05-16T08:03:40.575Z,20.00
2018-05-16T08:04:41.300Z,19.00
2018-05-16T08:05:42.035Z,20.00
2018-05-16T08:06:42.761Z,20.00
2018-05-16T08:07:43.484Z,21.00
2018-05-16T08:08:44.210Z,19.00
2018-05-16T08:09:44.933Z,20.00
2018-05-16T08:10:45.658Z,19.00
2018-05-16T08:11:46.383Z,22.00
2018-05-16T08:12:47.120Z,17.00
2018-05-16T08:13:47.843Z,22.00
2018-05-16T08:14:48.567Z,19.00
2018-05-16T08:15:49.291Z,20.00
2018-05-16T08:16:50.029Z,19.00
2018-05-16T08:17:50.753Z,20.00
2018-05-16T08:18:51.490Z,20.00
2018-05-16T08:19:52.212Z,20.00
2018-05-16T08:20:52.938Z,22.00
2018-05-16T08:21:53.723Z,19.00
2018-05-16T08:22:54.388Z,21.00
2018-05-16T08:23:55.112Z,20.00
2018-05-16T08:24:55.838Z,21.00
2018-05-16T08:25:56.579Z,18.00
2018-05-16T08:26:57.296Z,20.00
2018-05-16T08:27:58.031Z,21.00
2018-05-16T08:28:58.758Z,19.00
2018-05-16T08:29:59.498Z,21.00
2018-05-16T08:31:00.314Z,22.00
2018-05-16T08:32:00.962Z,21.00
2018-05-16T08:33:01.689Z,21.00
2018-05-16T08:34:02.419Z,20.00
2018-05-16T08:35:03.146Z,21.00
2018-05-16T08:36:03.876Z,21.00
2018-05-16T08:37:04.607Z,21.00
2018-05-16T08:38:05.337Z,20.00
2018-05-16T08:39:06.069Z,20.00
2018-05-16T08:40:06.811Z,19.00
2018-05-16T08:41:07.541Z,21.00
2018-05-16T08:42:08.273Z,19.00
2018-05-16T08:43:09.017Z,19.00
2018-05-16T08:44:09.747Z,21.00
2018-05-16T08:45:10.481Z,19.00
2018-05-16T08:46:11.224Z,20.00
2018-05-16T08:47:11.954Z,19.00
2018-05-16T08:48:12.687Z,21.00
2018-05-16T08:49:13.417Z,19.00
2018-05-16T08:50:14.151Z,18.00
2018-05-16T08:51:14.879Z,19.00
2018-05-16T08:52:15.621Z,18.00
2018-05-16T08:53:16.350Z,18.00
2018-05-16T08:54:17.083Z,19.00
2018-05-16T08:55:17.810Z,18.00
2018-05-16T08:56:18.540Z,16.00
2018-05-16T08:57:19.271Z,17.00
2018-05-16T08:58:20.000Z,17.00
2018-05-16T08:59:20.730Z,16.00
2018-05-16T09:00:21.474Z,16.00
2018-05-16T09:01:22.215Z,15.00
2018-05-16T09:02:22.943Z,16.00
2018-05-16T09:03:23.686Z,15.00
2018-05-16T09:04:24.417Z,14.00
2018-05-16T09:05:25.144Z,15.00
2018-05-16T09:06:25.874Z,14.00
2018-05-16T09:07:26.606Z,13.00
2018-05-16T09:08:27.336Z,14.00
2018-05-16T09:09:28.071Z,15.00
2018-05-16T09:10:28.810Z,14.00
2018-05-16T09:11:29.540Z,14.00
2018-05-16T09:12:30.274Z,15.00
2018-05-16T09:13:31.014Z,16.00
2018-05-16T09:14:31.745Z,13.00
2018-05-16T09:15:32.475Z,15.00
2018-05-16T09:16:33.207Z,15.00
2018-05-16T09:17:33.937Z,16.00
2018-05-16T09:18:34.667Z,14.00
2018-05-16T09:19:35.400Z,14.00
2018-05-16T09:20:36.131Z,14.00
2018-05-16T09:21:36.863Z,17.00
2018-05-16T09:22:37.595Z,16.00
2018-05-16T09:23:38.327Z,14.00
2018-05-16T09:24:39.073Z,14.00
2018-05-16T09:25:39.806Z,14.00
2018-05-16T09:26:40.548Z,14.00
2018-05-16T09:27:41.281Z,13.00
2018-05-16T09:28:42.011Z,12.00
2018-05-16T09:29:42.746Z,14.00
2018-05-16T09:30:43.476Z,15.00
2018-05-16T09:31:44.210Z,13.00
2018-05-16T09:32:44.939Z,14.00
2018-05-16T09:33:45.670Z,14.00
2018-05-16T09:34:46.403Z,17.00
2018-05-16T09:35:47.133Z,12.00
2018-05-16T09:36:47.862Z,17.00
2018-05-16T09:37:48.593Z,14.00
2018-05-16T09:38:49.321Z,17.00
2018-05-16T09:39:50.050Z,17.00
2018-05-16T09:40:50.779Z,14.00
2018-05-16T09:41:51.521Z,15.00
2018-05-16T09:42:52.264Z,15.00
2018-05-16T09:43:52.993Z,16.00
2018-05-16T09:44:53.723Z,14.00
2018-05-16T09:45:54.516Z,14.00
2018-05-16T09:46:55.181Z,13.00
2018-05-16T09:47:55.906Z,12.00
2018-05-16T09:48:56.637Z,14.00
2018-05-16T09:49:57.368Z,16.00
2018-05-16T09:50:58.097Z,15.00
2018-05-16T09:51:58.835Z,14.00
2018-05-16T09:52:59.566Z,13.00
2018-05-16T09:54:00.294Z,14.00
2018-05-16T09:55:01.023Z,15.00
2018-05-16T09:56:01.751Z,15.00
2018-05-16T09:57:02.481Z,16.00
2018-05-16T09:58:03.207Z,12.00
2018-05-16T09:59:03.937Z,16.00
2018-05-16T10:00:04.671Z,13.00
2018-05-16T10:01:05.395Z,14.00
2018-05-16T10:02:06.124Z,11.00
2018-05-16T10:03:06.857Z,15.00
2018-05-16T10:04:07.586Z,15.00
2018-05-16T10:05:08.315Z,13.00
2018-05-16T10:06:09.057Z,12.00
2018-05-16T10:07:09.805Z,15.00
2018-05-16T10:08:10.530Z,13.00
2018-05-16T10:09:11.270Z,12.00
2018-05-16T10:10:12.000Z,12.00
2018-05-16T10:11:12.812Z,12.00
2018-05-16T10:12:13.460Z,12.00
2018-05-16T10:13:14.190Z,12.00
2018-05-16T10:14:14.921Z,12.00
2018-05-16T10:15:15.665Z,12.00
2018-05-16T10:16:16.406Z,11.00
2018-05-16T10:17:17.136Z,12.00
2018-05-16T10:18:17.880Z,12.00
2018-05-16T10:19:18.612Z,12.00
2018-05-16T10:20:19.378Z,12.00
2018-05-16T10:21:20.075Z,11.00
2018-05-16T10:22:20.802Z,11.00
2018-05-16T10:23:21.531Z,12.00
2018-05-16T10:24:22.261Z,12.00
2018-05-16T10:25:23.003Z,13.00
2018-05-16T10:26:23.734Z,11.00
2018-05-16T10:27:24.475Z,11.00
2018-05-16T10:28:25.203Z,10.00
2018-05-16T10:29:25.930Z,9.00
2018-05-16T10:30:26.672Z,10.00
2018-05-16T10:31:27.398Z,11.00
2018-05-16T10:32:28.131Z,12.00
2018-05-16T10:33:28.856Z,11.00
2018-05-16T10:34:29.597Z,11.00
2018-05-16T10:35:30.313Z,12.00
2018-05-16T10:36:31.042Z,10.00
2018-05-16T10:37:31.772Z,10.00
2018-05-16T10:38:32.500Z,10.00
2018-05-16T10:39:33.231Z,11.00
2018-05-16T10:40:33.958Z,10.00
2018-05-16T10:41:34.767Z,10.00
2018-05-16T10:42:35.425Z,12.00
2018-05-16T10:43:36.171Z,11.00
2018-05-16T10:44:36.902Z,11.00
2018-05-16T10:45:37.644Z,10.00
2018-05-16T10:46:38.372Z,10.00
2018-05-16T10:47:39.115Z,10.00
2018-05-16T10:48:39.848Z,10.00
2018-05-16T10:49:40.580Z,11.00
2018-05-16T10:50:41.317Z,11.00
2018-05-16T10:51:42.047Z,10.00
2018-05-16T10:52:42.774Z,9.00
2018-05-16T10:53:43.504Z,9.00
2018-05-16T10:54:44.235Z,9.00
2018-05-16T10:55:44.968Z,10.00
2018-05-16T10:56:45.714Z,9.00
2018-05-16T10:57:46.445Z,16.00
2018-05-16T10:58:47.179Z,11.00
2018-05-16T10:59:47.912Z,11.00
2018-05-16T11:00:48.647Z,21.00
2018-05-16T11:01:49.391Z,10.00
2018-05-16T11:02:50.121Z,8.00
2018-05-16T11:03:50.853Z,10.00
2018-05-16T11:04:51.584Z,8.00
2018-05-16T11:05:52.317Z,9.00
2018-05-16T11:06:53.047Z,9.00
2018-05-16T11:07:53.791Z,9.00
2018-05-16T11:08:54.519Z,10.00
2018-05-16T11:09:55.249Z,9.00
2018-05-16T11:10:55.990Z,8.00
2018-05-16T11:11:56.723Z,10.00
2018-05-16T11:12:57.451Z,9.00
2018-05-16T11:13:58.182Z,9.00
2018-05-16T11:14:58.913Z,9.00
2018-05-16T11:15:59.641Z,8.00
2018-05-16T11:17:00.370Z,9.00
2018-05-16T11:18:01.102Z,9.00
2018-05-16T11:19:01.832Z,9.00
2018-05-16T11:20:02.566Z,8.00
2018-05-16T11:21:03.305Z,10.00
2018-05-16T11:22:04.033Z,8.00
2018-05-16T11:23:04.763Z,8.00
2018-05-16T11:24:05.492Z,9.00
2018-05-16T11:25:06.223Z,9.00
2018-05-16T11:26:06.955Z,8.00
2018-05-16T11:27:07.695Z,7.00
2018-05-16T11:28:08.426Z,8.00
2018-05-16T11:29:09.156Z,8.00
2018-05-16T11:30:09.887Z,8.00
2018-05-16T11:31:10.623Z,7.00
2018-05-16T11:32:11.348Z,7.00
2018-05-16T11:33:12.077Z,8.00
2018-05-16T11:34:12.807Z,7.00
2018-05-16T11:35:13.537Z,7.00
2018-05-16T11:36:14.273Z,7.00
2018-05-16T11:37:15.012Z,7.00
2018-05-16T11:38:15.742Z,8.00
2018-05-16T11:39:16.473Z,6.00
2018-05-16T11:40:17.206Z,8.00
2018-05-16T11:41:17.937Z,10.00
2018-05-16T11:42:18.713Z,7.00
2018-05-16T11:43:19.460Z,9.00
2018-05-16T11:44:20.150Z,8.00
2018-05-16T11:45:20.883Z,7.00
2018-05-16T11:46:21.617Z,9.00
2018-05-16T11:47:22.346Z,7.00
2018-05-16T11:48:23.081Z,7.00
2018-05-16T11:49:23.825Z,8.00
2018-05-16T11:50:24.570Z,7.00
2018-05-16T11:51:25.316Z,8.00
2018-05-16T11:52:26.050Z,7.00
2018-05-16T11:53:26.786Z,7.00
2018-05-16T11:54:27.526Z,9.00
2018-05-16T11:55:28.265Z,9.00
2018-05-16T11:56:28.996Z,7.00
2018-05-16T11:57:29.727Z,12.00
2018-05-16T11:58:30.463Z,8.00
2018-05-16T11:59:31.194Z,7.00
2018-05-16T12:00:31.928Z,7.00
2018-05-16T12:01:32.661Z,9.00
2018-05-16T12:02:33.408Z,7.00
2018-05-16T12:03:34.140Z,6.00
2018-05-16T12:04:34.872Z,8.00
2018-05-16T12:05:35.604Z,8.00
2018-05-16T12:06:36.335Z,8.00
2018-05-16T12:07:37.066Z,8.00
2018-05-16T12:08:37.808Z,6.00
2018-05-16T12:09:38.538Z,8.00
2018-05-16T12:10:39.270Z,7.00
2018-05-16T12:11:40.003Z,9.00
2018-05-16T12:12:40.733Z,8.00
2018-05-16T12:13:41.464Z,8.00
2018-05-16T12:14:42.323Z,7.00
2018-05-16T12:15:42.935Z,7.00
2018-05-16T12:16:43.682Z,8.00
2018-05-16T12:17:44.429Z,8.00
2018-05-16T12:18:45.159Z,8.00
2018-05-16T12:19:45.892Z,10.00
2018-05-16T12:20:46.702Z,9.00
2018-05-16T12:21:47.469Z,8.00
2018-05-16T12:22:48.120Z,10.00
2018-05-16T12:23:48.852Z,8.00
2018-05-16T12:24:49.583Z,9.00
2018-05-16T12:25:50.312Z,9.00
2018-05-16T12:26:51.045Z,10.00
2018-05-16T12:27:51.777Z,9.00
2018-05-16T12:28:52.596Z,9.00
2018-05-16T12:29:53.241Z,9.00
2018-05-16T12:30:53.966Z,8.00
2018-05-16T12:31:54.711Z,10.00
2018-05-16T12:32:55.443Z,11.00
2018-05-16T12:33:56.181Z,10.00
2018-05-16T12:34:56.949Z,10.00
2018-05-16T12:35:57.636Z,9.00
2018-05-16T12:36:58.367Z,9.00
2018-05-16T12:37:59.113Z,10.00
2018-05-16T12:38:59.830Z,10.00
2018-05-16T12:40:00.560Z,9.00
2018-05-16T12:41:01.292Z,11.00
2018-05-16T12:42:02.029Z,12.00
2018-05-16T12:43:02.764Z,9.00
2018-05-16T12:44:03.510Z,11.00
2018-05-16T12:45:04.237Z,9.00
2018-05-16T12:46:04.981Z,12.00
2018-05-16T12:47:05.710Z,10.00
2018-05-16T12:48:06.440Z,10.00
2018-05-16T12:49:07.177Z,10.00
2018-05-16T12:50:07.902Z,11.00
2018-05-16T12:51:58.397Z,11.00
2018-05-16T12:52:59.128Z,11.00
2018-05-16T12:53:59.860Z,13.00
2018-05-16T12:55:00.604Z,11.00
2018-05-16T12:56:01.333Z,10.00
2018-05-16T12:57:02.069Z,10.00
2018-05-16T12:58:02.801Z,10.00
2018-05-16T12:59:03.543Z,13.00
2018-05-16T13:00:04.271Z,12.00
2018-05-16T13:01:05.014Z,12.00
2018-05-16T13:02:05.750Z,12.00
2018-05-16T13:03:06.487Z,13.00
2018-05-16T13:04:07.214Z,12.00
2018-05-16T13:05:07.943Z,13.00
2018-05-16T13:06:08.673Z,15.00
2018-05-16T13:07:09.427Z,13.00
2018-05-16T13:08:10.145Z,12.00
2018-05-16T13:09:10.874Z,14.00
2018-05-16T13:10:11.599Z,16.00
2018-05-16T13:11:12.343Z,17.00